Orange Wave — ELPX7 — position and weather

sailwx.info

Track history (hours):
 
Tides and Currents Weather Stations Pressure Air Temp Water Temp Dewpoint Dewpoint Depression Visibility Wind Speed Wind Dir Waves Ship Positions

Orange Wave

Last reported at 2016-Jul-10 17:07 UTC. Time now 2016-Jul-28 16:24 UTC.
Position N 25°36' W 079°57'.
Warning: this ship's position is 17 days out of date.

Type: Cargo ship. MMSI: 636009894.

Date/timePositionNaut miles runAvg speedWind from/ knotsBaromVisibWave heightAir tempDewpointWater temp
2016-Jul-10 17:07N 25°36' W 079°57'1312.7
2016-Jul-10 16:06N 25°46' W 079°48'712.9
2016-Jul-10 15:33N 25°50' W 079°41'1413.3
2016-Jul-10 14:31N 25°58' W 079°29'  
2016-Jul-03 08:29N 39°25' W 030°36'2016.4
2016-Jul-03 07:16N 39°32' W 030°12'1115.8
2016-Jul-03 06:33N 39°37' W 029°59'1615.8
2016-Jul-03 05:32N 39°45' W 029°41'1716.1
2016-Jul-03 04:30N 39°55' W 029°23'  
Track history (hours):
 
Tides and Currents Weather Stations Pressure Air Temp Water Temp Dewpoint Dewpoint Depression Visibility Wind Speed Wind Dir Waves Ship Positions

Orange Wave

Last reported at 2016-Jul-10 17:07 UTC. Time now 2016-Jul-28 16:24 UTC.
Position N 25°36' W 079°57'.
Warning: this ship's position is 17 days out of date.

Type: Cargo ship. MMSI: 636009894.

Date/timePositionNaut miles runAvg speedWind from/ knotsBaromVisibWave heightAir tempDewpointWater temp
2016-Jul-10 17:07N 25°36' W 079°57'1312.7
2016-Jul-10 16:06N 25°46' W 079°48'712.9
2016-Jul-10 15:33N 25°50' W 079°41'1413.3
2016-Jul-10 14:31N 25°58' W 079°29'  
2016-Jul-03 08:29N 39°25' W 030°36'2016.4
2016-Jul-03 07:16N 39°32' W 030°12'1115.8
2016-Jul-03 06:33N 39°37' W 029°59'1615.8
2016-Jul-03 05:32N 39°45' W 029°41'1716.1
2016-Jul-03 04:30N 39°55' W 029°23'  

Dump ship's entire track history